createdAt,value
2023-03-31T00:01:13.991Z,101009.56
2023-03-31T00:03:44.830Z,101019.06
2023-03-31T00:06:18.919Z,101013.81
2023-03-31T00:08:51.870Z,101014.81
2023-03-31T00:11:22.753Z,101005.47
2023-03-31T00:13:50.426Z,100999.53
2023-03-31T00:16:18.162Z,100992.22
2023-03-31T00:18:56.825Z,100993.34
2023-03-31T00:25:39.174Z,100975.44
2023-03-31T00:28:07.292Z,100973.75
2023-03-31T00:30:43.626Z,100979.31
2023-03-31T00:33:20.850Z,100974.47
2023-03-31T00:36:00.579Z,100977.19
2023-03-31T00:38:33.671Z,100966.69
2023-03-31T00:41:13.308Z,100967.13
2023-03-31T00:44:08.614Z,100962.34
2023-03-31T00:46:55.306Z,100956.84
2023-03-31T00:49:34.127Z,100954.75
2023-03-31T00:52:11.610Z,100947.72
2023-03-31T00:54:43.796Z,100954.22
2023-03-31T00:57:14.754Z,100944.13
2023-03-31T01:00:14.884Z,100950.84
2023-03-31T01:03:13.127Z,100940.09
2023-03-31T01:05:47.733Z,100931.44
2023-03-31T01:08:20.328Z,100938.53
2023-03-31T01:11:51.176Z,100944.59
2023-03-31T01:14:26.257Z,100930.34
2023-03-31T01:17:57.424Z,100926.09
2023-03-31T01:20:36.684Z,100915.94
2023-03-31T01:23:41.832Z,100920.56
2023-03-31T01:26:30.713Z,100917.06
2023-03-31T01:29:32.185Z,100908.28
2023-03-31T01:32:24.378Z,100917.50
2023-03-31T01:35:22.786Z,100914.91
2023-03-31T01:38:06.062Z,100908.75
2023-03-31T01:40:59.230Z,100903.06
2023-03-31T01:43:36.819Z,100890.00
2023-03-31T01:46:29.789Z,100907.44
2023-03-31T01:49:38.688Z,100903.78
2023-03-31T01:52:19.221Z,100895.00
2023-03-31T01:55:02.359Z,100890.00
2023-03-31T01:57:35.267Z,100896.50
2023-03-31T02:00:15.511Z,100894.59
2023-03-31T02:02:58.335Z,100877.06
2023-03-31T02:05:35.581Z,100864.78
2023-03-31T02:08:24.379Z,100862.88
2023-03-31T02:10:53.897Z,100866.63
2023-03-31T02:13:26.031Z,100873.94
2023-03-31T02:16:00.114Z,100871.38
2023-03-31T02:18:40.177Z,100862.69
2023-03-31T02:21:36.799Z,100853.13
2023-03-31T02:27:46.041Z,100854.44
2023-03-31T02:30:18.318Z,100845.78
2023-03-31T02:32:47.324Z,100845.97
2023-03-31T02:35:19.376Z,100850.38
2023-03-31T02:37:50.063Z,100851.97
2023-03-31T02:40:27.780Z,100855.34
2023-03-31T02:42:57.818Z,100839.56
2023-03-31T02:45:42.348Z,100849.25
2023-03-31T02:48:30.549Z,100853.47
2023-03-31T02:51:14.498Z,100852.56
2023-03-31T02:54:28.596Z,100858.72
2023-03-31T02:57:29.513Z,100860.63
2023-03-31T03:00:17.650Z,100856.28
2023-03-31T03:02:59.765Z,100855.31
2023-03-31T03:05:51.335Z,100854.53
2023-03-31T03:09:00.404Z,100860.88
2023-03-31T03:15:49.938Z,100844.25
2023-03-31T03:18:20.678Z,100836.06
2023-03-31T03:24:31.026Z,100824.38
2023-03-31T03:26:58.882Z,100831.31
2023-03-31T03:29:27.421Z,100815.25
2023-03-31T03:31:55.242Z,100801.69
2023-03-31T03:34:25.513Z,100806.09
2023-03-31T03:36:55.867Z,100815.38
2023-03-31T03:39:26.833Z,100823.59
2023-03-31T03:41:54.895Z,100826.81
2023-03-31T03:44:25.214Z,100809.66
2023-03-31T03:46:57.198Z,100818.97
2023-03-31T03:49:28.207Z,100819.75
2023-03-31T03:51:56.043Z,100817.28
2023-03-31T03:54:26.176Z,100809.19
2023-03-31T03:56:53.932Z,100801.44
2023-03-31T03:59:25.886Z,100794.16
2023-03-31T04:02:42.100Z,100780.03
2023-03-31T04:05:10.213Z,100788.63
2023-03-31T04:07:38.145Z,100793.00
2023-03-31T04:13:41.231Z,100797.38
2023-03-31T04:16:09.557Z,100797.09
2023-03-31T04:18:51.724Z,100796.69
2023-03-31T04:21:27.864Z,100801.75
2023-03-31T04:24:04.738Z,100807.25
2023-03-31T04:26:44.735Z,100792.03
2023-03-31T04:29:22.753Z,100789.97
2023-03-31T04:32:21.837Z,100790.72
2023-03-31T04:35:10.138Z,100788.69
2023-03-31T04:37:40.291Z,100789.81
2023-03-31T04:40:13.306Z,100786.09
2023-03-31T04:42:44.532Z,100778.44
2023-03-31T04:45:28.730Z,100777.34
2023-03-31T04:48:01.419Z,100782.97
2023-03-31T04:50:32.793Z,100779.81
2023-03-31T04:53:00.893Z,100774.00
2023-03-31T04:55:37.596Z,100778.47
2023-03-31T04:58:07.858Z,100776.31
2023-03-31T05:00:35.553Z,100781.56
2023-03-31T05:03:03.512Z,100786.91
2023-03-31T05:05:31.209Z,100809.97
2023-03-31T05:08:00.863Z,100786.38
2023-03-31T05:10:29.299Z,100774.97
2023-03-31T05:12:58.137Z,100774.22
2023-03-31T05:15:26.065Z,100762.41
2023-03-31T05:17:55.268Z,100764.56
2023-03-31T05:20:23.100Z,100762.34
2023-03-31T05:22:51.193Z,100769.31
2023-03-31T05:25:22.588Z,100753.34
2023-03-31T05:27:51.199Z,100761.16
2023-03-31T05:30:19.831Z,100753.13
2023-03-31T05:32:48.376Z,100742.25
2023-03-31T05:39:00.984Z,100737.50
2023-03-31T05:41:28.860Z,100735.13
2023-03-31T05:43:56.703Z,100745.66
2023-03-31T05:46:26.858Z,100749.88
2023-03-31T05:49:09.757Z,100750.47
2023-03-31T05:51:42.361Z,100754.84
2023-03-31T05:54:10.088Z,100773.63
2023-03-31T05:56:37.634Z,100763.16
2023-03-31T05:59:05.593Z,100761.66
2023-03-31T06:01:59.690Z,100748.72
2023-03-31T06:04:46.278Z,100734.97
2023-03-31T06:07:16.891Z,100730.13
2023-03-31T06:09:47.941Z,100739.44
2023-03-31T06:12:32.509Z,100743.41
2023-03-31T06:15:06.150Z,100743.63
2023-03-31T06:20:57.041Z,100739.03
2023-03-31T06:23:26.199Z,100728.88
2023-03-31T06:25:54.346Z,100722.09
2023-03-31T06:28:27.318Z,100723.69
2023-03-31T06:31:01.603Z,100714.41
2023-03-31T06:33:29.230Z,100704.97
2023-03-31T06:35:57.923Z,100701.47
2023-03-31T06:38:26.274Z,100691.44
2023-03-31T06:41:13.615Z,100686.34
2023-03-31T06:43:41.420Z,100696.44
2023-03-31T06:46:10.054Z,100688.84
2023-03-31T06:48:52.451Z,100697.41
2023-03-31T06:51:20.592Z,100691.88
2023-03-31T06:53:48.137Z,100690.03
2023-03-31T06:56:16.278Z,100688.59
2023-03-31T06:58:43.939Z,100677.69
2023-03-31T07:01:11.969Z,100679.31
2023-03-31T07:03:39.786Z,100687.97
2023-03-31T07:06:07.588Z,100685.28
2023-03-31T07:08:36.311Z,100684.81
2023-03-31T07:11:04.340Z,100681.53
2023-03-31T07:13:32.491Z,100664.78
2023-03-31T07:16:00.312Z,100646.50
2023-03-31T07:18:34.310Z,100653.09
2023-03-31T07:21:05.792Z,100668.03
2023-03-31T07:23:36.347Z,100661.44
2023-03-31T07:26:07.912Z,100660.16
2023-03-31T07:30:26.915Z,100663.97
2023-03-31T07:32:24.165Z,100656.81
2023-03-31T07:34:52.840Z,100652.84
2023-03-31T07:37:20.534Z,100660.47
2023-03-31T07:39:48.094Z,100655.63
2023-03-31T07:42:16.115Z,100657.34
2023-03-31T07:44:43.791Z,100654.50
2023-03-31T07:47:11.402Z,100660.69
2023-03-31T07:50:05.100Z,100660.91
2023-03-31T07:52:32.652Z,100656.72
2023-03-31T07:55:00.358Z,100650.03
2023-03-31T07:57:46.368Z,100649.22
2023-03-31T08:00:18.635Z,100635.69
2023-03-31T08:02:47.633Z,100635.25
2023-03-31T08:05:18.576Z,100629.72
2023-03-31T08:07:53.435Z,100639.38
2023-03-31T08:10:24.999Z,100641.19
2023-03-31T08:12:53.934Z,100641.09
2023-03-31T08:15:22.140Z,100655.34
2023-03-31T08:17:52.152Z,100650.72
2023-03-31T08:20:30.230Z,100643.97
2023-03-31T08:22:57.982Z,100651.53
2023-03-31T08:25:27.777Z,100637.56
2023-03-31T08:28:02.363Z,100623.47
2023-03-31T08:30:38.147Z,100626.94
2023-03-31T08:33:14.498Z,100637.34
2023-03-31T08:36:06.078Z,100635.78
2023-03-31T08:40:25.271Z,100641.22
2023-03-31T08:50:03.938Z,100605.03
2023-03-31T09:01:05.249Z,100610.00
2023-03-31T09:03:53.419Z,100616.94
2023-03-31T09:06:43.659Z,100627.28
2023-03-31T09:09:26.312Z,100627.63
2023-03-31T09:11:56.916Z,100629.28
2023-03-31T09:15:38.427Z,100641.88
2023-03-31T09:18:32.545Z,100634.34
2023-03-31T09:21:10.650Z,100618.97
2023-03-31T09:23:59.989Z,100614.25
2023-03-31T09:26:34.593Z,100587.69
2023-03-31T09:29:35.447Z,100584.06
2023-03-31T09:32:18.223Z,100572.78
2023-03-31T09:34:50.542Z,100564.25
2023-03-31T09:37:18.440Z,100574.25
2023-03-31T09:39:46.220Z,100572.94
2023-03-31T09:42:14.590Z,100564.63
2023-03-31T09:44:47.486Z,100560.66
2023-03-31T09:48:09.427Z,100570.44
2023-03-31T09:50:45.130Z,100563.47
2023-03-31T09:53:34.739Z,100562.94
2023-03-31T09:56:05.495Z,100559.91
2023-03-31T09:58:41.703Z,100555.38
2023-03-31T10:01:12.089Z,100539.84
2023-03-31T10:03:54.215Z,100526.75
2023-03-31T10:06:23.949Z,100521.97
2023-03-31T10:09:44.094Z,100515.47
2023-03-31T10:12:23.014Z,100515.19
2023-03-31T10:14:52.837Z,100501.34
2023-03-31T10:17:27.803Z,100507.94
2023-03-31T10:19:59.213Z,100491.66
2023-03-31T10:22:30.680Z,100486.94
2023-03-31T10:25:21.983Z,100492.97
2023-03-31T10:27:55.983Z,100483.41
2023-03-31T10:30:28.750Z,100476.09
2023-03-31T10:32:56.995Z,100481.66
2023-03-31T10:35:34.950Z,100485.03
2023-03-31T10:38:06.699Z,100495.78
2023-03-31T10:40:36.538Z,100501.22
2023-03-31T10:43:20.498Z,100493.16
2023-03-31T10:45:56.347Z,100490.66
2023-03-31T10:48:23.989Z,100488.13
2023-03-31T10:50:51.760Z,100481.13
2023-03-31T10:53:20.109Z,100490.13
2023-03-31T10:56:13.858Z,100485.34
2023-03-31T10:58:52.088Z,100476.53
2023-03-31T11:01:47.821Z,100469.81
2023-03-31T11:04:44.145Z,100452.38
2023-03-31T11:07:14.289Z,100436.47
2023-03-31T11:09:55.813Z,100419.19
2023-03-31T11:12:57.451Z,100423.28
2023-03-31T11:15:42.647Z,100422.44
2023-03-31T11:18:28.733Z,100410.75
2023-03-31T11:21:02.204Z,100402.28
2023-03-31T11:24:18.050Z,100387.22
2023-03-31T11:31:04.725Z,100359.91
2023-03-31T11:33:56.087Z,100369.78
2023-03-31T11:36:44.993Z,100354.84
2023-03-31T11:39:37.178Z,100356.13
2023-03-31T11:45:38.994Z,100324.72
2023-03-31T11:48:31.931Z,100314.75
2023-03-31T11:55:26.300Z,100290.47
2023-03-31T11:58:46.858Z,100292.25
2023-03-31T12:01:35.948Z,100278.59
2023-03-31T12:11:49.306Z,100268.41
2023-03-31T12:23:07.760Z,100249.69
2023-03-31T12:25:59.143Z,100241.78
2023-03-31T12:29:16.931Z,100233.44
2023-03-31T12:35:04.523Z,100217.19
2023-03-31T12:42:16.193Z,100197.72
2023-03-31T12:45:18.293Z,100184.53
2023-03-31T12:48:05.698Z,100186.97
2023-03-31T12:50:36.612Z,100191.25
2023-03-31T12:57:45.723Z,100174.44
2023-03-31T13:04:18.121Z,100154.09
2023-03-31T13:06:57.197Z,100156.31
2023-03-31T13:10:40.290Z,100150.88
2023-03-31T13:13:16.333Z,100123.66
2023-03-31T13:15:56.554Z,100127.47
2023-03-31T13:21:56.361Z,100112.28
2023-03-31T13:24:51.257Z,100110.28
2023-03-31T13:32:00.499Z,100105.06
2023-03-31T13:34:36.090Z,100100.78
2023-03-31T13:37:19.879Z,100096.44
2023-03-31T13:40:15.133Z,100098.06
2023-03-31T13:43:17.623Z,100070.16
2023-03-31T13:46:59.526Z,100064.09
2023-03-31T13:49:48.371Z,100056.59
2023-03-31T13:52:35.798Z,100048.38
2023-03-31T13:55:46.801Z,100046.88
2023-03-31T13:59:01.483Z,100035.69
2023-03-31T14:01:49.068Z,100043.84
2023-03-31T14:04:34.520Z,100031.84
2023-03-31T14:07:18.271Z,100026.22
2023-03-31T14:09:55.039Z,100030.03
2023-03-31T14:16:28.474Z,100014.31
2023-03-31T14:22:02.071Z,100011.53
2023-03-31T14:24:37.268Z,100003.72
2023-03-31T14:27:25.604Z,99995.13
2023-03-31T14:29:59.964Z,99993.56
2023-03-31T14:33:03.873Z,99987.06
2023-03-31T14:35:38.958Z,99971.38
2023-03-31T14:38:13.366Z,99968.06
2023-03-31T14:40:58.484Z,99958.59
2023-03-31T14:43:29.456Z,99965.56
2023-03-31T14:46:10.047Z,99956.06
2023-03-31T14:48:50.391Z,99929.97
2023-03-31T14:51:30.684Z,99931.97
2023-03-31T14:53:59.482Z,99922.69
2023-03-31T14:56:36.316Z,99914.38
2023-03-31T14:59:06.504Z,99929.69
2023-03-31T15:01:37.805Z,99921.03
2023-03-31T15:04:12.831Z,99911.09
2023-03-31T15:06:48.065Z,99901.16
2023-03-31T15:09:28.493Z,99904.34
2023-03-31T15:12:13.733Z,99890.88
2023-03-31T15:14:46.962Z,99887.44
2023-03-31T15:17:38.053Z,99885.56
2023-03-31T15:20:24.456Z,99874.53
2023-03-31T15:22:52.537Z,99884.22
2023-03-31T15:25:21.866Z,99875.44
2023-03-31T15:27:56.828Z,99886.03
2023-03-31T15:30:27.187Z,99890.09
2023-03-31T15:33:01.510Z,99893.03
2023-03-31T15:35:39.050Z,99888.91
2023-03-31T15:38:06.892Z,99899.03
2023-03-31T15:40:41.056Z,99889.91
2023-03-31T15:43:25.015Z,99888.28
2023-03-31T15:45:54.582Z,99886.13
2023-03-31T15:48:28.763Z,99884.03
2023-03-31T15:51:07.764Z,99881.47
2023-03-31T15:53:38.625Z,99875.59
2023-03-31T16:08:11.034Z,99875.50
2023-03-31T16:10:41.103Z,99868.47
2023-03-31T16:13:10.937Z,99863.19
2023-03-31T16:15:47.113Z,99848.78
2023-03-31T16:18:35.077Z,99843.72
2023-03-31T16:21:05.810Z,99850.53
2023-03-31T16:23:38.841Z,99846.69
2023-03-31T16:26:16.420Z,99853.81
2023-03-31T16:29:18.474Z,99851.66
2023-03-31T16:32:13.255Z,99858.88
2023-03-31T16:35:05.343Z,99843.75
2023-03-31T16:37:33.711Z,99852.53
2023-03-31T16:40:01.820Z,99843.78
2023-03-31T16:42:29.415Z,99830.13
2023-03-31T16:45:13.039Z,99840.72
2023-03-31T16:49:17.840Z,99838.06
2023-03-31T16:55:19.284Z,99840.38
2023-03-31T16:58:16.380Z,99847.13
2023-03-31T17:00:47.840Z,99829.59
2023-03-31T17:03:59.212Z,99809.16
2023-03-31T17:06:29.857Z,99784.78
2023-03-31T17:08:57.592Z,99776.50
2023-03-31T17:11:25.101Z,99794.16
2023-03-31T17:13:54.727Z,99793.50
2023-03-31T17:16:29.808Z,99777.53
2023-03-31T17:19:09.932Z,99776.78
2023-03-31T17:21:37.959Z,99767.34
2023-03-31T17:26:37.692Z,99771.03
2023-03-31T17:29:05.920Z,99775.97
2023-03-31T17:31:35.773Z,99778.19
2023-03-31T17:34:04.390Z,99784.91
2023-03-31T17:36:31.999Z,99783.59
2023-03-31T17:39:00.449Z,99774.50
2023-03-31T17:41:29.803Z,99773.44
2023-03-31T17:43:58.124Z,99770.63
2023-03-31T17:46:37.276Z,99775.78
2023-03-31T17:49:05.124Z,99776.56
2023-03-31T17:51:38.118Z,99774.25
2023-03-31T17:54:05.719Z,99759.19
2023-03-31T17:56:33.278Z,99754.19
2023-03-31T17:59:00.860Z,99763.16
2023-03-31T18:01:54.145Z,99772.22
2023-03-31T18:04:32.747Z,99778.91
2023-03-31T18:07:08.135Z,99771.50
2023-03-31T18:09:41.341Z,99779.78
2023-03-31T18:17:31.556Z,99783.97
2023-03-31T18:24:14.966Z,99787.25
2023-03-31T19:20:44.652Z,99765.41
2023-03-31T19:29:25.300Z,99771.88
2023-03-31T19:31:56.283Z,99765.69
2023-03-31T19:35:56.202Z,99771.38
2023-03-31T20:58:01.841Z,99738.03
2023-03-31T21:09:37.933Z,99731.34
2023-03-31T21:13:46.952Z,99727.91
2023-03-31T21:30:06.848Z,99718.66
2023-03-31T21:37:19.902Z,99698.44
2023-03-31T21:45:18.596Z,99696.00
2023-03-31T21:49:12.852Z,99668.88
2023-03-31T21:52:48.661Z,99655.16
2023-03-31T22:07:39.024Z,99658.25
2023-03-31T22:17:59.834Z,99651.59
2023-03-31T22:21:19.515Z,99652.16
2023-03-31T22:25:11.810Z,99651.88
2023-03-31T22:34:14.228Z,99672.47
2023-03-31T22:40:56.502Z,99662.41
2023-03-31T22:43:53.946Z,99658.66
2023-03-31T22:46:24.346Z,99670.97
2023-03-31T23:01:59.999Z,99653.34
2023-03-31T23:04:42.000Z,99657.44
2023-03-31T23:07:23.394Z,99669.63
2023-03-31T23:12:41.544Z,99663.50
2023-03-31T23:14:53.040Z,99643.25
2023-03-31T23:17:56.973Z,99651.13
2023-03-31T23:21:35.852Z,99645.19
2023-03-31T23:25:13.060Z,99647.84
2023-03-31T23:27:52.395Z,99637.63
2023-03-31T23:30:30.042Z,99629.28
2023-03-31T23:33:57.348Z,99647.97
2023-03-31T23:36:29.838Z,99627.03
2023-03-31T23:39:12.109Z,99626.69
2023-03-31T23:42:02.684Z,99627.16
2023-03-31T23:44:45.222Z,99623.81
2023-03-31T23:48:13.118Z,99622.09
2023-03-31T23:51:07.640Z,99622.09
2023-03-31T23:58:01.724Z,99630.56
